Decoded Metar for PAOM (NOME in AK, USA) (IATA:OME) | Meteo·Mobile Aviation Weather
aviador You're here:

PAOM Decoded Metar

NOME in AK, USA
Report Time2018-11-19 05:04:00
UTC Time2018-11-19 05:49:24
Flight Rules mvfr MVFR
Wind050° at 05 kt
W.Decomp.*RWY 03: 5.0 kt HW 0.5 kt RCW
RWY 10: 2.2 kt HW 4.5 kt LCW
W.Rank050° ranks 15
Current wind is below 050° avg. (8.4)
Visibility8047 m
Phenomena:Light Snow
Mist
Clouds:Scattered 028 Hf
Overcast 080 Hf
Expected CloudBase > 400 ft AGL from Temp-Dew spread
Ceiling8,000 ft
Temp-1°C (ISA -16)
Dew Point-2°C (93% RH)
AAT-5.1°C
QNH997 hPa
Density Alt-1,293 ft
Elevation36 ft
Report Wrong Elevation
Raw Report
PAOM 190504Z 05005KT 5SM -SN BR SCT028 OVC080 M01/M02 A2943=

Extra information for PAOM:More info

Metar Taf Metar & Taf Last 4 Metars F.Rules Stats Wind Profile Meteogram Temp Stats Airport Information Weather charts Add Link Nearby VenuesMetar ALERT Operation Metar Decoded Social comments

AIRNAV info for PAOM